sensor_id;sensor_type;location;lat;lon;timestamp;P1;durP1;ratioP1;P2;durP2;ratioP2
54883;SDS011;40776;52.880;6.016;2023-06-22T00:01:27;33.53;;;24.33;;
54883;SDS011;40776;52.880;6.016;2023-06-22T00:03:53;35.75;;;25.83;;
54883;SDS011;40776;52.880;6.016;2023-06-22T00:06:19;31.98;;;23.25;;
54883;SDS011;40776;52.880;6.016;2023-06-22T00:08:45;34.58;;;23.00;;
54883;SDS011;40776;52.880;6.016;2023-06-22T00:11:11;33.03;;;23.98;;
54883;SDS011;40776;52.880;6.016;2023-06-22T00:13:38;27.17;;;21.75;;
54883;SDS011;40776;52.880;6.016;2023-06-22T00:16:04;35.92;;;23.33;;
54883;SDS011;40776;52.880;6.016;2023-06-22T00:18:30;28.15;;;22.05;;
54883;SDS011;40776;52.880;6.016;2023-06-22T00:20:56;35.95;;;25.83;;
54883;SDS011;40776;52.880;6.016;2023-06-22T00:23:23;32.28;;;24.80;;
54883;SDS011;40776;52.880;6.016;2023-06-22T00:25:49;32.00;;;23.23;;
54883;SDS011;40776;52.880;6.016;2023-06-22T00:28:16;35.88;;;25.55;;
54883;SDS011;40776;52.880;6.016;2023-06-22T00:30:42;33.67;;;23.92;;
54883;SDS011;40776;52.880;6.016;2023-06-22T00:33:08;35.40;;;25.40;;
54883;SDS011;40776;52.880;6.016;2023-06-22T00:35:34;33.97;;;24.10;;
54883;SDS011;40776;52.880;6.016;2023-06-22T00:38:00;29.40;;;22.58;;
54883;SDS011;40776;52.880;6.016;2023-06-22T00:40:27;35.53;;;23.58;;
54883;SDS011;40776;52.880;6.016;2023-06-22T00:42:53;39.50;;;25.88;;
54883;SDS011;40776;52.880;6.016;2023-06-22T00:45:20;40.70;;;27.83;;
54883;SDS011;40776;52.880;6.016;2023-06-22T00:47:48;37.05;;;26.50;;
54883;SDS011;40776;52.880;6.016;2023-06-22T00:50:16;37.58;;;26.20;;
54883;SDS011;40776;52.880;6.016;2023-06-22T00:52:45;35.72;;;25.38;;
54883;SDS011;40776;52.880;6.016;2023-06-22T00:55:12;38.45;;;26.00;;
54883;SDS011;40776;52.880;6.016;2023-06-22T00:57:39;38.53;;;29.42;;
54883;SDS011;40776;52.880;6.016;2023-06-22T01:00:05;44.20;;;27.55;;
54883;SDS011;40776;52.880;6.016;2023-06-22T01:02:33;39.63;;;27.88;;
54883;SDS011;40776;52.880;6.016;2023-06-22T01:04:59;37.67;;;26.08;;
54883;SDS011;40776;52.880;6.016;2023-06-22T01:07:31;36.53;;;26.13;;
54883;SDS011;40776;52.880;6.016;2023-06-22T01:12:40;33.20;;;24.23;;
54883;SDS011;40776;52.880;6.016;2023-06-22T01:15:13;38.20;;;27.02;;
54883;SDS011;40776;52.880;6.016;2023-06-22T01:17:41;38.40;;;26.52;;
54883;SDS011;40776;52.880;6.016;2023-06-22T01:20:08;39.45;;;27.52;;
54883;SDS011;40776;52.880;6.016;2023-06-22T01:22:53;44.95;;;29.10;;
54883;SDS011;40776;52.880;6.016;2023-06-22T01:25:31;41.83;;;28.98;;
54883;SDS011;40776;52.880;6.016;2023-06-22T01:28:03;41.28;;;28.80;;
54883;SDS011;40776;52.880;6.016;2023-06-22T01:30:31;43.47;;;27.75;;
54883;SDS011;40776;52.880;6.016;2023-06-22T01:32:59;41.95;;;27.90;;
54883;SDS011;40776;52.880;6.016;2023-06-22T01:35:26;39.55;;;28.50;;
54883;SDS011;40776;52.880;6.016;2023-06-22T01:37:52;41.15;;;28.42;;
54883;SDS011;40776;52.880;6.016;2023-06-22T01:40:18;38.03;;;28.92;;
54883;SDS011;40776;52.880;6.016;2023-06-22T01:42:45;38.22;;;28.15;;
54883;SDS011;40776;52.880;6.016;2023-06-22T01:45:12;35.50;;;26.98;;
54883;SDS011;40776;52.880;6.016;2023-06-22T01:47:38;36.45;;;27.40;;
54883;SDS011;40776;52.880;6.016;2023-06-22T01:50:05;35.25;;;25.40;;
54883;SDS011;40776;52.880;6.016;2023-06-22T01:52:31;31.40;;;25.65;;
54883;SDS011;40776;52.880;6.016;2023-06-22T01:54:59;30.80;;;25.35;;
54883;SDS011;40776;52.880;6.016;2023-06-22T01:57:25;35.38;;;25.90;;
54883;SDS011;40776;52.880;6.016;2023-06-22T02:02:21;33.03;;;25.48;;
54883;SDS011;40776;52.880;6.016;2023-06-22T02:05:07;28.90;;;23.25;;
54883;SDS011;40776;52.880;6.016;2023-06-22T02:07:41;26.50;;;21.42;;
54883;SDS011;40776;52.880;6.016;2023-06-22T02:10:07;23.05;;;20.05;;
54883;SDS011;40776;52.880;6.016;2023-06-22T02:12:37;26.53;;;22.27;;
54883;SDS011;40776;52.880;6.016;2023-06-22T02:15:03;30.65;;;24.70;;
54883;SDS011;40776;52.880;6.016;2023-06-22T02:17:30;26.55;;;23.35;;
54883;SDS011;40776;52.880;6.016;2023-06-22T02:19:58;24.27;;;21.45;;
54883;SDS011;40776;52.880;6.016;2023-06-22T02:22:24;23.83;;;19.33;;
54883;SDS011;40776;52.880;6.016;2023-06-22T02:24:50;23.17;;;20.70;;
54883;SDS011;40776;52.880;6.016;2023-06-22T02:27:16;24.55;;;20.95;;
54883;SDS011;40776;52.880;6.016;2023-06-22T02:29:42;24.38;;;21.10;;
54883;SDS011;40776;52.880;6.016;2023-06-22T02:32:08;23.10;;;20.27;;
54883;SDS011;40776;52.880;6.016;2023-06-22T02:34:35;24.45;;;20.38;;
54883;SDS011;40776;52.880;6.016;2023-06-22T02:37:01;25.35;;;20.55;;
54883;SDS011;40776;52.880;6.016;2023-06-22T02:39:27;22.77;;;19.48;;
54883;SDS011;40776;52.880;6.016;2023-06-22T02:41:54;24.13;;;20.63;;
54883;SDS011;40776;52.880;6.016;2023-06-22T02:44:20;27.35;;;21.50;;
54883;SDS011;40776;52.880;6.016;2023-06-22T02:46:47;29.55;;;24.55;;
54883;SDS011;40776;52.880;6.016;2023-06-22T02:49:13;30.88;;;24.65;;
54883;SDS011;40776;52.880;6.016;2023-06-22T02:51:41;34.85;;;27.77;;
54883;SDS011;40776;52.880;6.016;2023-06-22T02:54:07;35.92;;;27.05;;
54883;SDS011;40776;52.880;6.016;2023-06-22T02:56:33;34.58;;;27.83;;
54883;SDS011;40776;52.880;6.016;2023-06-22T02:59:01;31.58;;;25.23;;
54883;SDS011;40776;52.880;6.016;2023-06-22T03:01:28;30.92;;;26.17;;
54883;SDS011;40776;52.880;6.016;2023-06-22T03:03:55;35.42;;;27.25;;
54883;SDS011;40776;52.880;6.016;2023-06-22T03:06:21;34.33;;;27.15;;
54883;SDS011;40776;52.880;6.016;2023-06-22T03:08:48;38.28;;;28.45;;
54883;SDS011;40776;52.880;6.016;2023-06-22T03:11:14;40.05;;;28.30;;
54883;SDS011;40776;52.880;6.016;2023-06-22T03:13:40;43.13;;;29.85;;
54883;SDS011;40776;52.880;6.016;2023-06-22T03:16:06;40.08;;;28.48;;
54883;SDS011;40776;52.880;6.016;2023-06-22T03:18:33;36.38;;;27.10;;
54883;SDS011;40776;52.880;6.016;2023-06-22T03:20:59;45.20;;;29.75;;
54883;SDS011;40776;52.880;6.016;2023-06-22T03:23:27;57.90;;;31.35;;
54883;SDS011;40776;52.880;6.016;2023-06-22T03:25:53;66.85;;;31.70;;
54883;SDS011;40776;52.880;6.016;2023-06-22T03:28:21;57.10;;;31.67;;
54883;SDS011;40776;52.880;6.016;2023-06-22T03:30:47;57.53;;;33.03;;
54883;SDS011;40776;52.880;6.016;2023-06-22T03:33:13;74.68;;;30.95;;
54883;SDS011;40776;52.880;6.016;2023-06-22T03:35:39;62.97;;;30.00;;
54883;SDS011;40776;52.880;6.016;2023-06-22T03:38:05;45.47;;;30.63;;
54883;SDS011;40776;52.880;6.016;2023-06-22T03:40:31;57.08;;;31.73;;
54883;SDS011;40776;52.880;6.016;2023-06-22T03:42:57;44.45;;;31.25;;
54883;SDS011;40776;52.880;6.016;2023-06-22T03:45:23;45.05;;;31.08;;
54883;SDS011;40776;52.880;6.016;2023-06-22T03:47:49;48.17;;;31.95;;
54883;SDS011;40776;52.880;6.016;2023-06-22T03:50:15;58.65;;;32.40;;
54883;SDS011;40776;52.880;6.016;2023-06-22T03:52:41;66.50;;;31.95;;
54883;SDS011;40776;52.880;6.016;2023-06-22T03:55:07;51.60;;;29.98;;
54883;SDS011;40776;52.880;6.016;2023-06-22T03:57:34;55.33;;;31.30;;
54883;SDS011;40776;52.880;6.016;2023-06-22T04:00:00;48.05;;;30.08;;
54883;SDS011;40776;52.880;6.016;2023-06-22T04:02:27;51.30;;;29.63;;
54883;SDS011;40776;52.880;6.016;2023-06-22T04:04:53;47.60;;;30.55;;
54883;SDS011;40776;52.880;6.016;2023-06-22T04:07:19;44.90;;;31.60;;
54883;SDS011;40776;52.880;6.016;2023-06-22T04:09:46;39.33;;;30.85;;
54883;SDS011;40776;52.880;6.016;2023-06-22T04:12:12;47.78;;;32.65;;
54883;SDS011;40776;52.880;6.016;2023-06-22T04:14:38;46.80;;;30.40;;
54883;SDS011;40776;52.880;6.016;2023-06-22T04:17:04;38.75;;;29.85;;
54883;SDS011;40776;52.880;6.016;2023-06-22T04:19:30;36.67;;;30.52;;
54883;SDS011;40776;52.880;6.016;2023-06-22T04:21:56;46.78;;;31.70;;
54883;SDS011;40776;52.880;6.016;2023-06-22T04:24:22;56.28;;;32.30;;
54883;SDS011;40776;52.880;6.016;2023-06-22T04:26:48;46.65;;;33.60;;
54883;SDS011;40776;52.880;6.016;2023-06-22T04:29:19;51.53;;;34.33;;
54883;SDS011;40776;52.880;6.016;2023-06-22T04:31:45;58.08;;;35.95;;
54883;SDS011;40776;52.880;6.016;2023-06-22T04:36:42;56.15;;;36.75;;
54883;SDS011;40776;52.880;6.016;2023-06-22T04:39:09;50.42;;;36.28;;
54883;SDS011;40776;52.880;6.016;2023-06-22T04:41:36;52.75;;;37.55;;
54883;SDS011;40776;52.880;6.016;2023-06-22T04:44:10;48.47;;;36.70;;
54883;SDS011;40776;52.880;6.016;2023-06-22T04:46:37;47.53;;;36.33;;
54883;SDS011;40776;52.880;6.016;2023-06-22T04:49:07;48.40;;;35.78;;
54883;SDS011;40776;52.880;6.016;2023-06-22T04:51:39;48.75;;;35.28;;
54883;SDS011;40776;52.880;6.016;2023-06-22T04:54:05;40.75;;;31.73;;
54883;SDS011;40776;52.880;6.016;2023-06-22T04:56:32;42.00;;;32.22;;
54883;SDS011;40776;52.880;6.016;2023-06-22T04:58:58;41.75;;;32.35;;
54883;SDS011;40776;52.880;6.016;2023-06-22T05:01:24;40.42;;;32.65;;
54883;SDS011;40776;52.880;6.016;2023-06-22T05:03:50;43.33;;;33.30;;
54883;SDS011;40776;52.880;6.016;2023-06-22T05:06:26;40.78;;;32.55;;
54883;SDS011;40776;52.880;6.016;2023-06-22T05:08:56;45.03;;;32.38;;
54883;SDS011;40776;52.880;6.016;2023-06-22T05:11:29;41.15;;;30.45;;
54883;SDS011;40776;52.880;6.016;2023-06-22T05:13:55;41.40;;;31.27;;
54883;SDS011;40776;52.880;6.016;2023-06-22T05:16:21;42.90;;;31.90;;
54883;SDS011;40776;52.880;6.016;2023-06-22T05:18:55;42.05;;;33.35;;
54883;SDS011;40776;52.880;6.016;2023-06-22T05:21:25;39.90;;;31.83;;
54883;SDS011;40776;52.880;6.016;2023-06-22T05:23:52;34.42;;;26.67;;
54883;SDS011;40776;52.880;6.016;2023-06-22T05:26:20;42.20;;;30.63;;
54883;SDS011;40776;52.880;6.016;2023-06-22T05:28:46;39.92;;;30.40;;
54883;SDS011;40776;52.880;6.016;2023-06-22T05:31:13;33.42;;;27.70;;
54883;SDS011;40776;52.880;6.016;2023-06-22T05:33:40;35.55;;;26.73;;
54883;SDS011;40776;52.880;6.016;2023-06-22T05:36:06;39.97;;;30.90;;
54883;SDS011;40776;52.880;6.016;2023-06-22T05:38:32;38.08;;;28.05;;
54883;SDS011;40776;52.880;6.016;2023-06-22T05:40:58;39.63;;;29.00;;
54883;SDS011;40776;52.880;6.016;2023-06-22T05:43:24;37.20;;;26.70;;
54883;SDS011;40776;52.880;6.016;2023-06-22T05:45:50;40.17;;;27.75;;
54883;SDS011;40776;52.880;6.016;2023-06-22T05:48:16;33.70;;;26.50;;
54883;SDS011;40776;52.880;6.016;2023-06-22T05:50:42;36.05;;;26.10;;
54883;SDS011;40776;52.880;6.016;2023-06-22T05:53:09;38.65;;;26.20;;
54883;SDS011;40776;52.880;6.016;2023-06-22T05:55:35;34.65;;;25.05;;
54883;SDS011;40776;52.880;6.016;2023-06-22T05:58:01;30.63;;;24.42;;
54883;SDS011;40776;52.880;6.016;2023-06-22T06:00:28;31.85;;;23.98;;
54883;SDS011;40776;52.880;6.016;2023-06-22T06:02:54;35.33;;;25.48;;
54883;SDS011;40776;52.880;6.016;2023-06-22T06:05:20;33.83;;;24.58;;
54883;SDS011;40776;52.880;6.016;2023-06-22T06:07:48;32.20;;;24.90;;
54883;SDS011;40776;52.880;6.016;2023-06-22T06:10:14;32.17;;;24.98;;
54883;SDS011;40776;52.880;6.016;2023-06-22T06:12:40;35.15;;;23.63;;
54883;SDS011;40776;52.880;6.016;2023-06-22T06:15:07;28.50;;;21.88;;
54883;SDS011;40776;52.880;6.016;2023-06-22T06:17:33;29.15;;;22.35;;
54883;SDS011;40776;52.880;6.016;2023-06-22T06:19:59;28.70;;;22.50;;
54883;SDS011;40776;52.880;6.016;2023-06-22T06:22:25;29.67;;;22.48;;
54883;SDS011;40776;52.880;6.016;2023-06-22T06:24:51;30.23;;;22.70;;
54883;SDS011;40776;52.880;6.016;2023-06-22T06:27:17;29.23;;;20.63;;
54883;SDS011;40776;52.880;6.016;2023-06-22T06:29:43;28.30;;;20.27;;
54883;SDS011;40776;52.880;6.016;2023-06-22T06:32:13;27.58;;;21.60;;
54883;SDS011;40776;52.880;6.016;2023-06-22T06:34:41;28.38;;;20.33;;
54883;SDS011;40776;52.880;6.016;2023-06-22T06:37:08;25.05;;;18.98;;
54883;SDS011;40776;52.880;6.016;2023-06-22T06:39:33;22.80;;;18.85;;
54883;SDS011;40776;52.880;6.016;2023-06-22T06:42:02;23.95;;;19.00;;
54883;SDS011;40776;52.880;6.016;2023-06-22T06:44:29;24.15;;;18.65;;
54883;SDS011;40776;52.880;6.016;2023-06-22T06:46:54;23.65;;;18.85;;
54883;SDS011;40776;52.880;6.016;2023-06-22T06:49:21;21.15;;;16.67;;
54883;SDS011;40776;52.880;6.016;2023-06-22T06:51:47;21.88;;;15.48;;
54883;SDS011;40776;52.880;6.016;2023-06-22T06:54:13;27.83;;;16.88;;
54883;SDS011;40776;52.880;6.016;2023-06-22T06:56:38;30.45;;;15.48;;
54883;SDS011;40776;52.880;6.016;2023-06-22T06:59:04;31.73;;;14.88;;
54883;SDS011;40776;52.880;6.016;2023-06-22T07:01:30;19.98;;;13.55;;
54883;SDS011;40776;52.880;6.016;2023-06-22T07:03:59;16.38;;;12.50;;
54883;SDS011;40776;52.880;6.016;2023-06-22T07:06:25;16.75;;;13.43;;
54883;SDS011;40776;52.880;6.016;2023-06-22T07:08:54;14.88;;;12.18;;
54883;SDS011;40776;52.880;6.016;2023-06-22T07:11:20;16.95;;;13.50;;
54883;SDS011;40776;52.880;6.016;2023-06-22T07:13:46;17.58;;;12.93;;
54883;SDS011;40776;52.880;6.016;2023-06-22T07:16:12;13.20;;;11.23;;
54883;SDS011;40776;52.880;6.016;2023-06-22T07:18:39;14.75;;;10.95;;
54883;SDS011;40776;52.880;6.016;2023-06-22T07:21:05;13.90;;;10.40;;
54883;SDS011;40776;52.880;6.016;2023-06-22T07:23:32;18.55;;;10.68;;
54883;SDS011;40776;52.880;6.016;2023-06-22T07:25:58;17.00;;;11.85;;
54883;SDS011;40776;52.880;6.016;2023-06-22T07:28:27;19.17;;;12.25;;
54883;SDS011;40776;52.880;6.016;2023-06-22T07:30:53;19.05;;;12.43;;
54883;SDS011;40776;52.880;6.016;2023-06-22T07:33:19;18.67;;;12.45;;
54883;SDS011;40776;52.880;6.016;2023-06-22T07:35:45;15.90;;;12.48;;
54883;SDS011;40776;52.880;6.016;2023-06-22T07:38:12;18.38;;;11.80;;
54883;SDS011;40776;52.880;6.016;2023-06-22T07:40:39;15.48;;;11.73;;
54883;SDS011;40776;52.880;6.016;2023-06-22T07:43:06;19.35;;;12.27;;
54883;SDS011;40776;52.880;6.016;2023-06-22T07:45:32;18.02;;;11.27;;
54883;SDS011;40776;52.880;6.016;2023-06-22T07:48:00;12.68;;;10.93;;
54883;SDS011;40776;52.880;6.016;2023-06-22T07:50:26;15.82;;;11.23;;
54883;SDS011;40776;52.880;6.016;2023-06-22T07:52:51;18.70;;;12.68;;
54883;SDS011;40776;52.880;6.016;2023-06-22T07:55:18;19.45;;;11.82;;
54883;SDS011;40776;52.880;6.016;2023-06-22T07:57:44;16.27;;;11.98;;
54883;SDS011;40776;52.880;6.016;2023-06-22T08:00:11;16.38;;;12.43;;
54883;SDS011;40776;52.880;6.016;2023-06-22T08:02:41;17.30;;;12.40;;
54883;SDS011;40776;52.880;6.016;2023-06-22T08:05:08;17.67;;;11.52;;
54883;SDS011;40776;52.880;6.016;2023-06-22T08:07:35;16.23;;;12.13;;
54883;SDS011;40776;52.880;6.016;2023-06-22T08:10:03;17.45;;;12.02;;
54883;SDS011;40776;52.880;6.016;2023-06-22T08:12:35;18.80;;;12.48;;
54883;SDS011;40776;52.880;6.016;2023-06-22T08:15:00;21.40;;;12.30;;
54883;SDS011;40776;52.880;6.016;2023-06-22T08:17:26;15.52;;;12.80;;
54883;SDS011;40776;52.880;6.016;2023-06-22T08:19:52;17.88;;;12.43;;
54883;SDS011;40776;52.880;6.016;2023-06-22T08:22:18;19.42;;;13.63;;
54883;SDS011;40776;52.880;6.016;2023-06-22T08:24:43;17.55;;;13.73;;
54883;SDS011;40776;52.880;6.016;2023-06-22T08:27:12;17.55;;;13.98;;
54883;SDS011;40776;52.880;6.016;2023-06-22T08:29:38;22.20;;;14.30;;
54883;SDS011;40776;52.880;6.016;2023-06-22T08:32:04;16.92;;;13.90;;
54883;SDS011;40776;52.880;6.016;2023-06-22T08:34:31;20.73;;;13.45;;
54883;SDS011;40776;52.880;6.016;2023-06-22T08:36:57;16.65;;;12.30;;
54883;SDS011;40776;52.880;6.016;2023-06-22T08:39:23;18.25;;;14.07;;
54883;SDS011;40776;52.880;6.016;2023-06-22T08:41:48;17.40;;;12.77;;
54883;SDS011;40776;52.880;6.016;2023-06-22T08:44:16;19.45;;;13.27;;
54883;SDS011;40776;52.880;6.016;2023-06-22T08:46:43;14.23;;;10.27;;
54883;SDS011;40776;52.880;6.016;2023-06-22T08:49:09;18.83;;;11.20;;
54883;SDS011;40776;52.880;6.016;2023-06-22T08:51:35;16.30;;;10.73;;
54883;SDS011;40776;52.880;6.016;2023-06-22T08:54:01;15.38;;;12.02;;
54883;SDS011;40776;52.880;6.016;2023-06-22T08:56:26;15.13;;;11.05;;
54883;SDS011;40776;52.880;6.016;2023-06-22T08:58:52;16.95;;;12.45;;
54883;SDS011;40776;52.880;6.016;2023-06-22T09:01:18;13.88;;;10.40;;
54883;SDS011;40776;52.880;6.016;2023-06-22T09:03:44;14.55;;;10.93;;
54883;SDS011;40776;52.880;6.016;2023-06-22T09:06:19;18.52;;;12.23;;
54883;SDS011;40776;52.880;6.016;2023-06-22T09:08:46;14.00;;;9.82;;
54883;SDS011;40776;52.880;6.016;2023-06-22T09:11:12;17.05;;;10.80;;
54883;SDS011;40776;52.880;6.016;2023-06-22T09:13:38;14.82;;;9.30;;
54883;SDS011;40776;52.880;6.016;2023-06-22T09:16:04;16.50;;;10.88;;
54883;SDS011;40776;52.880;6.016;2023-06-22T09:18:29;14.88;;;9.98;;
54883;SDS011;40776;52.880;6.016;2023-06-22T09:20:55;13.13;;;8.88;;
54883;SDS011;40776;52.880;6.016;2023-06-22T09:23:21;10.82;;;8.80;;
54883;SDS011;40776;52.880;6.016;2023-06-22T09:25:47;14.25;;;8.98;;
54883;SDS011;40776;52.880;6.016;2023-06-22T09:28:13;15.25;;;8.57;;
54883;SDS011;40776;52.880;6.016;2023-06-22T09:30:39;18.40;;;12.40;;
54883;SDS011;40776;52.880;6.016;2023-06-22T09:33:05;12.57;;;9.82;;
54883;SDS011;40776;52.880;6.016;2023-06-22T09:35:30;13.65;;;9.60;;
54883;SDS011;40776;52.880;6.016;2023-06-22T09:37:56;12.90;;;8.70;;
54883;SDS011;40776;52.880;6.016;2023-06-22T09:40:25;13.80;;;8.20;;
54883;SDS011;40776;52.880;6.016;2023-06-22T09:42:51;12.98;;;9.10;;
54883;SDS011;40776;52.880;6.016;2023-06-22T09:45:16;14.93;;;8.90;;
54883;SDS011;40776;52.880;6.016;2023-06-22T09:47:42;11.60;;;7.28;;
54883;SDS011;40776;52.880;6.016;2023-06-22T09:50:08;11.55;;;8.48;;
54883;SDS011;40776;52.880;6.016;2023-06-22T09:52:34;11.90;;;8.00;;
54883;SDS011;40776;52.880;6.016;2023-06-22T09:55:00;13.07;;;8.57;;
54883;SDS011;40776;52.880;6.016;2023-06-22T09:57:25;11.40;;;7.78;;
54883;SDS011;40776;52.880;6.016;2023-06-22T09:59:51;11.35;;;7.70;;
54883;SDS011;40776;52.880;6.016;2023-06-22T10:02:17;11.45;;;8.82;;
54883;SDS011;40776;52.880;6.016;2023-06-22T10:04:42;14.27;;;9.00;;
54883;SDS011;40776;52.880;6.016;2023-06-22T10:07:08;11.95;;;8.32;;
54883;SDS011;40776;52.880;6.016;2023-06-22T10:09:34;9.45;;;7.88;;
54883;SDS011;40776;52.880;6.016;2023-06-22T10:11:59;10.15;;;6.38;;
54883;SDS011;40776;52.880;6.016;2023-06-22T10:14:25;11.85;;;8.25;;
54883;SDS011;40776;52.880;6.016;2023-06-22T10:16:52;11.90;;;7.75;;
54883;SDS011;40776;52.880;6.016;2023-06-22T10:19:18;9.93;;;7.18;;
54883;SDS011;40776;52.880;6.016;2023-06-22T10:21:44;10.10;;;7.80;;
54883;SDS011;40776;52.880;6.016;2023-06-22T10:24:10;12.38;;;7.30;;
54883;SDS011;40776;52.880;6.016;2023-06-22T10:26:35;12.30;;;7.78;;
54883;SDS011;40776;52.880;6.016;2023-06-22T10:29:02;9.55;;;6.90;;
54883;SDS011;40776;52.880;6.016;2023-06-22T10:31:28;10.38;;;6.80;;
54883;SDS011;40776;52.880;6.016;2023-06-22T10:33:54;11.70;;;7.55;;
54883;SDS011;40776;52.880;6.016;2023-06-22T10:36:23;11.27;;;6.65;;
54883;SDS011;40776;52.880;6.016;2023-06-22T10:38:51;8.98;;;6.50;;
54883;SDS011;40776;52.880;6.016;2023-06-22T10:41:18;9.65;;;5.72;;
54883;SDS011;40776;52.880;6.016;2023-06-22T10:43:44;7.82;;;5.78;;
54883;SDS011;40776;52.880;6.016;2023-06-22T10:46:09;9.25;;;5.80;;
54883;SDS011;40776;52.880;6.016;2023-06-22T10:48:35;7.32;;;5.20;;
54883;SDS011;40776;52.880;6.016;2023-06-22T10:51:01;7.63;;;5.38;;
54883;SDS011;40776;52.880;6.016;2023-06-22T10:53:26;6.40;;;4.47;;
54883;SDS011;40776;52.880;6.016;2023-06-22T10:55:52;9.23;;;5.55;;
54883;SDS011;40776;52.880;6.016;2023-06-22T10:58:19;9.13;;;5.22;;
54883;SDS011;40776;52.880;6.016;2023-06-22T11:00:45;8.07;;;4.85;;
54883;SDS011;40776;52.880;6.016;2023-06-22T11:03:11;7.20;;;4.60;;
54883;SDS011;40776;52.880;6.016;2023-06-22T11:05:39;7.50;;;3.65;;
54883;SDS011;40776;52.880;6.016;2023-06-22T11:08:05;9.57;;;5.07;;
54883;SDS011;40776;52.880;6.016;2023-06-22T11:10:30;7.60;;;4.25;;
54883;SDS011;40776;52.880;6.016;2023-06-22T11:12:56;7.47;;;3.92;;
54883;SDS011;40776;52.880;6.016;2023-06-22T11:15:23;5.85;;;3.80;;
54883;SDS011;40776;52.880;6.016;2023-06-22T11:17:49;6.60;;;3.50;;
54883;SDS011;40776;52.880;6.016;2023-06-22T11:20:15;9.57;;;5.75;;
54883;SDS011;40776;52.880;6.016;2023-06-22T11:22:41;9.38;;;4.65;;
54883;SDS011;40776;52.880;6.016;2023-06-22T11:25:07;10.02;;;5.18;;
54883;SDS011;40776;52.880;6.016;2023-06-22T11:27:33;7.32;;;4.97;;
54883;SDS011;40776;52.880;6.016;2023-06-22T11:29:59;8.40;;;4.43;;
54883;SDS011;40776;52.880;6.016;2023-06-22T11:32:25;7.72;;;5.38;;
54883;SDS011;40776;52.880;6.016;2023-06-22T11:34:51;8.30;;;5.38;;
54883;SDS011;40776;52.880;6.016;2023-06-22T11:37:17;6.53;;;4.75;;
54883;SDS011;40776;52.880;6.016;2023-06-22T11:39:42;10.07;;;5.32;;
54883;SDS011;40776;52.880;6.016;2023-06-22T11:42:09;7.50;;;4.65;;
54883;SDS011;40776;52.880;6.016;2023-06-22T11:44:35;9.48;;;4.80;;
54883;SDS011;40776;52.880;6.016;2023-06-22T11:47:01;7.28;;;4.80;;
54883;SDS011;40776;52.880;6.016;2023-06-22T11:49:29;6.25;;;4.35;;
54883;SDS011;40776;52.880;6.016;2023-06-22T11:51:55;7.90;;;4.45;;
54883;SDS011;40776;52.880;6.016;2023-06-22T11:54:21;6.65;;;4.25;;
54883;SDS011;40776;52.880;6.016;2023-06-22T11:56:47;8.73;;;4.45;;
54883;SDS011;40776;52.880;6.016;2023-06-22T11:59:13;6.03;;;3.90;;
54883;SDS011;40776;52.880;6.016;2023-06-22T12:01:38;4.97;;;3.92;;
54883;SDS011;40776;52.880;6.016;2023-06-22T12:04:04;7.38;;;3.70;;
54883;SDS011;40776;52.880;6.016;2023-06-22T12:06:31;6.50;;;4.22;;
54883;SDS011;40776;52.880;6.016;2023-06-22T12:08:58;8.02;;;4.65;;
54883;SDS011;40776;52.880;6.016;2023-06-22T12:11:24;6.95;;;4.03;;
54883;SDS011;40776;52.880;6.016;2023-06-22T12:13:49;6.78;;;4.03;;
54883;SDS011;40776;52.880;6.016;2023-06-22T12:16:15;6.30;;;4.25;;
54883;SDS011;40776;52.880;6.016;2023-06-22T12:18:41;5.18;;;3.67;;
54883;SDS011;40776;52.880;6.016;2023-06-22T12:21:07;5.72;;;3.97;;
54883;SDS011;40776;52.880;6.016;2023-06-22T12:23:32;6.07;;;3.22;;
54883;SDS011;40776;52.880;6.016;2023-06-22T12:25:58;6.68;;;4.13;;
54883;SDS011;40776;52.880;6.016;2023-06-22T12:28:25;6.85;;;3.45;;
54883;SDS011;40776;52.880;6.016;2023-06-22T12:30:50;5.82;;;4.60;;
54883;SDS011;40776;52.880;6.016;2023-06-22T12:33:16;7.20;;;4.07;;
54883;SDS011;40776;52.880;6.016;2023-06-22T12:35:43;5.10;;;3.90;;
54883;SDS011;40776;52.880;6.016;2023-06-22T12:38:10;6.10;;;4.35;;
54883;SDS011;40776;52.880;6.016;2023-06-22T12:40:36;7.70;;;4.70;;
54883;SDS011;40776;52.880;6.016;2023-06-22T12:43:02;10.00;;;5.05;;
54883;SDS011;40776;52.880;6.016;2023-06-22T12:45:28;6.90;;;4.03;;
54883;SDS011;40776;52.880;6.016;2023-06-22T12:47:56;5.68;;;3.95;;
54883;SDS011;40776;52.880;6.016;2023-06-22T12:50:22;6.72;;;3.80;;
54883;SDS011;40776;52.880;6.016;2023-06-22T12:52:48;8.32;;;3.97;;
54883;SDS011;40776;52.880;6.016;2023-06-22T12:55:14;5.07;;;3.85;;
54883;SDS011;40776;52.880;6.016;2023-06-22T12:57:40;5.43;;;3.67;;
54883;SDS011;40776;52.880;6.016;2023-06-22T13:00:06;6.35;;;3.30;;
54883;SDS011;40776;52.880;6.016;2023-06-22T13:02:33;9.43;;;3.65;;
54883;SDS011;40776;52.880;6.016;2023-06-22T13:04:59;7.53;;;4.28;;
54883;SDS011;40776;52.880;6.016;2023-06-22T13:07:24;7.32;;;4.53;;
54883;SDS011;40776;52.880;6.016;2023-06-22T13:09:52;9.15;;;5.05;;
54883;SDS011;40776;52.880;6.016;2023-06-22T13:12:18;7.85;;;5.00;;
54883;SDS011;40776;52.880;6.016;2023-06-22T13:14:48;6.93;;;4.78;;
54883;SDS011;40776;52.880;6.016;2023-06-22T13:17:14;8.02;;;5.07;;
54883;SDS011;40776;52.880;6.016;2023-06-22T13:19:40;9.52;;;4.50;;
54883;SDS011;40776;52.880;6.016;2023-06-22T13:22:09;8.15;;;4.70;;
54883;SDS011;40776;52.880;6.016;2023-06-22T13:25:05;5.17;;;4.07;;
54883;SDS011;40776;52.880;6.016;2023-06-22T13:27:31;7.40;;;4.03;;
54883;SDS011;40776;52.880;6.016;2023-06-22T13:29:57;7.25;;;4.20;;
54883;SDS011;40776;52.880;6.016;2023-06-22T13:32:23;8.90;;;5.15;;
54883;SDS011;40776;52.880;6.016;2023-06-22T13:34:49;6.80;;;5.57;;
54883;SDS011;40776;52.880;6.016;2023-06-22T13:37:16;8.23;;;5.55;;
54883;SDS011;40776;52.880;6.016;2023-06-22T13:39:42;8.25;;;5.75;;
54883;SDS011;40776;52.880;6.016;2023-06-22T13:42:08;8.57;;;5.80;;
54883;SDS011;40776;52.880;6.016;2023-06-22T13:44:34;13.93;;;5.10;;
54883;SDS011;40776;52.880;6.016;2023-06-22T13:47:00;11.60;;;4.68;;
54883;SDS011;40776;52.880;6.016;2023-06-22T13:49:26;8.93;;;6.40;;
54883;SDS011;40776;52.880;6.016;2023-06-22T13:51:52;6.47;;;4.95;;
54883;SDS011;40776;52.880;6.016;2023-06-22T13:54:18;10.45;;;5.93;;
54883;SDS011;40776;52.880;6.016;2023-06-22T13:56:43;9.68;;;5.70;;
54883;SDS011;40776;52.880;6.016;2023-06-22T13:59:09;8.68;;;6.35;;
54883;SDS011;40776;52.880;6.016;2023-06-22T14:01:36;9.13;;;6.40;;
54883;SDS011;40776;52.880;6.016;2023-06-22T14:04:03;11.52;;;7.95;;
54883;SDS011;40776;52.880;6.016;2023-06-22T14:06:30;9.52;;;7.82;;
54883;SDS011;40776;52.880;6.016;2023-06-22T14:08:56;11.05;;;8.27;;
54883;SDS011;40776;52.880;6.016;2023-06-22T14:11:22;11.95;;;7.25;;
54883;SDS011;40776;52.880;6.016;2023-06-22T14:13:48;11.85;;;7.30;;
54883;SDS011;40776;52.880;6.016;2023-06-22T14:16:14;10.18;;;8.45;;
54883;SDS011;40776;52.880;6.016;2023-06-22T14:18:40;10.68;;;7.47;;
54883;SDS011;40776;52.880;6.016;2023-06-22T14:21:06;10.98;;;7.75;;
54883;SDS011;40776;52.880;6.016;2023-06-22T14:23:33;10.48;;;6.57;;
54883;SDS011;40776;52.880;6.016;2023-06-22T14:25:59;13.15;;;7.10;;
54883;SDS011;40776;52.880;6.016;2023-06-22T14:28:25;11.77;;;6.75;;
54883;SDS011;40776;52.880;6.016;2023-06-22T14:30:51;12.07;;;7.00;;
54883;SDS011;40776;52.880;6.016;2023-06-22T14:33:17;10.60;;;7.13;;